createdAt,value
2019-04-30T00:00:47.075Z,21.43
2019-04-30T00:03:35.094Z,19.57
2019-04-30T00:06:03.396Z,23.37
2019-04-30T00:08:35.503Z,21.20
2019-04-30T00:11:02.530Z,23.37
2019-04-30T00:13:30.893Z,28.93
2019-04-30T00:16:01.617Z,23.87
2019-04-30T00:18:30.664Z,24.53
2019-04-30T00:20:58.774Z,24.03
2019-04-30T00:23:30.655Z,24.20
2019-04-30T00:25:57.625Z,20.63
2019-04-30T00:28:26.718Z,19.13
2019-04-30T00:30:56.174Z,21.77
2019-04-30T00:33:25.618Z,22.70
2019-04-30T00:35:55.183Z,22.13
2019-04-30T00:38:25.248Z,22.93
2019-04-30T00:40:53.192Z,26.67
2019-04-30T00:43:21.839Z,23.27
2019-04-30T00:45:50.390Z,25.30
2019-04-30T00:48:26.848Z,29.90
2019-04-30T00:50:49.344Z,28.00
2019-04-30T00:53:18.038Z,31.90
2019-04-30T00:55:48.372Z,28.10
2019-04-30T00:58:19.694Z,26.83
2019-04-30T01:00:55.490Z,29.00
2019-04-30T01:03:26.527Z,30.57
2019-04-30T01:05:55.275Z,27.83
2019-04-30T01:08:27.168Z,31.40
2019-04-30T01:10:53.298Z,33.60
2019-04-30T01:13:21.587Z,32.50
2019-04-30T01:15:52.487Z,36.53
2019-04-30T01:18:23.686Z,38.73
2019-04-30T01:20:50.933Z,38.60
2019-04-30T01:23:19.633Z,35.70
2019-04-30T01:25:51.327Z,38.90
2019-04-30T01:28:22.743Z,36.03
2019-04-30T01:30:49.544Z,33.97
2019-04-30T01:33:19.150Z,34.67
2019-04-30T01:35:48.780Z,31.33
2019-04-30T01:38:16.092Z,28.97
2019-04-30T01:40:47.440Z,27.30
2019-04-30T01:43:14.840Z,26.20
2019-04-30T01:45:43.482Z,23.77
2019-04-30T01:48:12.704Z,24.10
2019-04-30T01:50:42.182Z,23.30
2019-04-30T01:53:13.049Z,21.37
2019-04-30T01:55:56.888Z,24.27
2019-04-30T01:58:53.702Z,22.73
2019-04-30T02:01:23.106Z,19.50
2019-04-30T02:03:51.079Z,16.90
2019-04-30T02:06:19.684Z,16.90
2019-04-30T02:08:49.374Z,17.13
2019-04-30T02:11:18.966Z,15.33
2019-04-30T02:13:49.205Z,16.33
2019-04-30T02:16:20.753Z,13.80
2019-04-30T02:18:49.503Z,16.07
2019-04-30T02:21:19.424Z,14.70
2019-04-30T02:23:49.318Z,15.83
2019-04-30T02:26:18.723Z,14.13
2019-04-30T02:28:49.350Z,13.47
2019-04-30T02:31:22.366Z,11.43
2019-04-30T02:33:50.772Z,12.17
2019-04-30T02:36:40.440Z,10.20
2019-04-30T02:39:11.161Z,9.57
2019-04-30T02:41:41.096Z,10.87
2019-04-30T02:44:09.748Z,10.13
2019-04-30T02:46:40.640Z,8.37
2019-04-30T02:49:10.808Z,10.63
2019-04-30T02:51:40.212Z,10.70
2019-04-30T02:54:15.177Z,9.93
2019-04-30T02:56:46.353Z,9.00
2019-04-30T02:59:14.896Z,8.37
2019-04-30T03:01:43.121Z,11.27
2019-04-30T03:04:11.861Z,10.63
2019-04-30T03:06:40.694Z,12.50
2019-04-30T03:09:10.351Z,11.37
2019-04-30T03:11:40.519Z,11.90
2019-04-30T03:14:10.237Z,11.17
2019-04-30T03:17:00.393Z,12.30
2019-04-30T03:19:50.787Z,12.83
2019-04-30T03:22:20.678Z,12.23
2019-04-30T03:24:50.144Z,12.20
2019-04-30T03:27:21.056Z,11.27
2019-04-30T03:29:50.374Z,11.70
2019-04-30T03:32:22.102Z,12.33
2019-04-30T03:34:51.587Z,12.87
2019-04-30T03:37:19.878Z,10.60
2019-04-30T03:39:49.305Z,13.07
2019-04-30T03:42:19.694Z,13.87
2019-04-30T03:44:49.627Z,11.47
2019-04-30T03:47:19.958Z,12.60
2019-04-30T03:49:49.939Z,11.13
2019-04-30T03:52:19.715Z,11.27
2019-04-30T03:54:49.461Z,10.93
2019-04-30T03:57:20.238Z,9.90
2019-04-30T03:59:49.926Z,8.37
2019-04-30T04:02:31.906Z,7.40
2019-04-30T04:05:06.910Z,8.70
2019-04-30T04:08:03.774Z,7.57
2019-04-30T04:10:44.945Z,8.17
2019-04-30T04:13:13.552Z,8.00
2019-04-30T04:15:41.840Z,10.73
2019-04-30T04:18:10.841Z,10.90
2019-04-30T04:20:39.968Z,6.93
2019-04-30T04:23:09.684Z,7.60
2019-04-30T04:25:39.976Z,5.93
2019-04-30T04:28:10.075Z,5.07
2019-04-30T04:30:39.204Z,3.47
2019-04-30T04:33:13.191Z,4.57
2019-04-30T04:35:41.474Z,4.07
2019-04-30T04:38:12.361Z,5.03
2019-04-30T04:40:40.039Z,3.10
2019-04-30T04:43:10.380Z,6.07
2019-04-30T04:45:40.553Z,6.10
2019-04-30T04:48:09.559Z,13.97
2019-04-30T04:50:40.039Z,14.13
2019-04-30T04:53:11.281Z,10.53
2019-04-30T04:55:40.022Z,4.43
2019-04-30T04:58:12.417Z,5.73
2019-04-30T05:00:39.162Z,5.97
2019-04-30T05:03:20.149Z,5.17
2019-04-30T05:05:49.936Z,4.67
2019-04-30T05:08:18.572Z,4.90
2019-04-30T05:10:47.310Z,3.73
2019-04-30T05:13:15.169Z,4.20
2019-04-30T05:15:43.683Z,10.83
2019-04-30T05:18:12.259Z,11.27
2019-04-30T05:20:41.712Z,6.60
2019-04-30T05:23:10.118Z,3.73
2019-04-30T05:25:39.109Z,3.57
2019-04-30T05:28:08.726Z,5.93
2019-04-30T05:30:37.083Z,7.67
2019-04-30T05:33:05.780Z,8.43
2019-04-30T05:35:34.079Z,11.00
2019-04-30T05:38:02.713Z,18.87
2019-04-30T05:40:31.394Z,24.97
2019-04-30T05:43:00.362Z,26.70
2019-04-30T05:45:29.164Z,34.90
2019-04-30T05:47:58.739Z,47.33
2019-04-30T05:50:29.475Z,25.30
2019-04-30T05:52:59.188Z,18.23
2019-04-30T05:55:27.234Z,12.17
2019-04-30T05:57:56.562Z,14.20
2019-04-30T06:00:24.292Z,17.07
2019-04-30T06:02:52.080Z,19.13
2019-04-30T06:05:20.368Z,21.03
2019-04-30T06:07:51.647Z,17.97
2019-04-30T06:10:32.029Z,20.23
2019-04-30T06:13:21.773Z,22.47
2019-04-30T06:16:09.783Z,71.63
2019-04-30T06:18:38.594Z,49.87
2019-04-30T06:21:06.629Z,33.53
2019-04-30T06:23:35.040Z,32.03
2019-04-30T06:26:09.551Z,23.30
2019-04-30T06:28:33.849Z,21.17
2019-04-30T06:31:02.535Z,20.53
2019-04-30T06:33:30.405Z,20.30
2019-04-30T06:35:59.051Z,19.03
2019-04-30T06:38:29.057Z,18.70
2019-04-30T06:40:58.852Z,29.57
2019-04-30T06:43:28.708Z,28.13
2019-04-30T06:45:58.949Z,23.70
2019-04-30T06:48:29.517Z,28.73
2019-04-30T06:50:59.222Z,47.20
2019-04-30T06:53:29.221Z,51.73
2019-04-30T06:55:58.999Z,47.10
2019-04-30T06:58:29.149Z,35.30
2019-04-30T07:00:59.422Z,49.23
2019-04-30T07:03:29.051Z,72.03
2019-04-30T07:05:58.594Z,73.47
2019-04-30T07:08:55.587Z,98.80
2019-04-30T07:11:23.829Z,65.13
2019-04-30T07:13:52.382Z,68.43
2019-04-30T07:16:20.425Z,33.57
2019-04-30T07:18:48.992Z,74.63
2019-04-30T07:21:19.552Z,78.57
2019-04-30T07:23:48.538Z,79.73
2019-04-30T07:26:19.681Z,192.13
2019-04-30T07:28:54.343Z,104.20
2019-04-30T07:31:19.452Z,116.60
2019-04-30T07:33:53.104Z,102.97
2019-04-30T07:36:19.549Z,112.00
2019-04-30T07:38:54.503Z,98.30
2019-04-30T07:41:19.053Z,205.43
2019-04-30T07:43:49.384Z,188.73
2019-04-30T07:46:19.795Z,203.23
2019-04-30T07:48:50.155Z,227.87
2019-04-30T07:51:21.188Z,92.83
2019-04-30T07:53:49.632Z,180.43
2019-04-30T07:56:25.776Z,114.40
2019-04-30T07:58:50.429Z,164.67
2019-04-30T08:01:19.577Z,110.03
2019-04-30T08:04:08.854Z,98.27
2019-04-30T08:06:36.921Z,100.37
2019-04-30T08:09:10.119Z,93.83
2019-04-30T08:11:41.667Z,98.30
2019-04-30T08:14:09.772Z,111.93
2019-04-30T08:16:38.607Z,86.13
2019-04-30T08:19:09.024Z,96.87
2019-04-30T08:21:38.726Z,85.93
2019-04-30T08:24:08.925Z,70.63
2019-04-30T08:26:37.296Z,106.07
2019-04-30T08:29:05.915Z,132.80
2019-04-30T08:31:34.513Z,98.73
2019-04-30T08:34:02.969Z,107.13
2019-04-30T08:36:33.052Z,83.40
2019-04-30T08:39:01.160Z,111.67
2019-04-30T08:41:29.876Z,181.60
2019-04-30T08:43:59.714Z,224.23
2019-04-30T08:46:28.687Z,181.90
2019-04-30T08:48:58.803Z,149.87
2019-04-30T08:51:30.312Z,99.93
2019-04-30T08:53:58.807Z,117.27
2019-04-30T08:56:26.590Z,150.83
2019-04-30T08:58:54.920Z,134.43
2019-04-30T09:01:23.185Z,103.43
2019-04-30T09:03:51.760Z,105.13
2019-04-30T09:06:25.189Z,89.33
2019-04-30T09:08:59.452Z,98.17
2019-04-30T09:11:35.539Z,98.63
2019-04-30T09:13:58.581Z,144.23
2019-04-30T09:16:26.574Z,96.33
2019-04-30T09:18:54.784Z,97.93
2019-04-30T09:21:23.023Z,113.23
2019-04-30T09:23:52.833Z,150.10
2019-04-30T09:26:20.904Z,89.60
2019-04-30T09:28:49.551Z,83.90
2019-04-30T09:31:19.655Z,88.50
2019-04-30T09:33:49.216Z,91.03
2019-04-30T09:36:20.595Z,95.87
2019-04-30T09:38:48.525Z,119.00
2019-04-30T09:41:16.771Z,283.37
2019-04-30T09:43:44.959Z,90.73
2019-04-30T09:46:22.116Z,176.30
2019-04-30T09:48:43.051Z,129.53
2019-04-30T09:51:11.977Z,108.93
2019-04-30T09:53:41.245Z,136.80
2019-04-30T09:56:09.747Z,230.23
2019-04-30T09:58:39.343Z,172.70
2019-04-30T10:01:09.451Z,100.63
2019-04-30T10:03:38.428Z,99.70
2019-04-30T10:06:08.957Z,135.87
2019-04-30T10:08:47.954Z,177.67
2019-04-30T10:11:30.074Z,190.43
2019-04-30T10:13:58.571Z,126.17
2019-04-30T10:16:45.207Z,193.60
2019-04-30T10:19:14.971Z,125.07
2019-04-30T10:21:43.316Z,102.40
2019-04-30T10:24:15.493Z,155.80
2019-04-30T10:26:42.226Z,90.10
2019-04-30T10:29:10.953Z,74.87
2019-04-30T10:31:39.143Z,91.17
2019-04-30T10:34:09.560Z,78.10
2019-04-30T10:36:41.152Z,72.60
2019-04-30T10:39:09.090Z,79.47
2019-04-30T10:41:36.708Z,84.73
2019-04-30T10:44:05.051Z,69.83
2019-04-30T10:46:33.702Z,75.23
2019-04-30T10:49:01.592Z,74.62
2019-04-30T10:51:29.882Z,75.03
2019-04-30T10:53:59.189Z,63.50
2019-04-30T10:56:29.174Z,67.57
2019-04-30T10:58:57.957Z,64.97
2019-04-30T11:01:25.805Z,60.67
2019-04-30T11:03:54.359Z,72.07
2019-04-30T11:06:22.301Z,80.57
2019-04-30T11:08:50.566Z,71.37
2019-04-30T11:11:18.896Z,72.70
2019-04-30T11:13:47.155Z,60.83
2019-04-30T11:16:15.656Z,66.33
2019-04-30T11:18:43.922Z,65.73
2019-04-30T11:21:11.740Z,68.80
2019-04-30T11:23:40.372Z,77.30
2019-04-30T11:26:09.362Z,78.77
2019-04-30T11:28:38.478Z,79.27
2019-04-30T11:31:25.124Z,82.67
2019-04-30T11:33:54.995Z,83.50
2019-04-30T11:36:23.195Z,88.73
2019-04-30T11:38:51.809Z,82.57
2019-04-30T11:41:30.094Z,89.47
2019-04-30T11:43:50.335Z,94.63
2019-04-30T11:46:59.692Z,102.80
2019-04-30T11:49:27.401Z,101.83
2019-04-30T11:51:55.693Z,102.53
2019-04-30T11:54:24.560Z,102.20
2019-04-30T11:56:52.824Z,97.13
2019-04-30T11:59:21.650Z,100.37
2019-04-30T12:01:52.057Z,91.33
2019-04-30T12:04:20.650Z,84.83
2019-04-30T12:06:47.997Z,86.10
2019-04-30T12:09:53.780Z,91.70
2019-04-30T12:12:21.761Z,80.80
2019-04-30T12:14:49.957Z,84.63
2019-04-30T12:17:18.398Z,81.67
2019-04-30T12:19:48.709Z,79.13
2019-04-30T12:22:20.078Z,82.03
2019-04-30T12:24:48.746Z,84.07
2019-04-30T12:27:18.685Z,86.73
2019-04-30T12:29:47.074Z,79.10
2019-04-30T12:32:15.708Z,87.53
2019-04-30T12:34:43.714Z,85.87
2019-04-30T12:37:12.579Z,85.50
2019-04-30T12:39:40.866Z,79.70
2019-04-30T12:42:09.510Z,84.73
2019-04-30T12:44:39.933Z,97.10
2019-04-30T12:47:09.689Z,87.43
2019-04-30T12:49:52.907Z,78.67
2019-04-30T12:52:29.716Z,76.50
2019-04-30T12:55:01.123Z,84.90
2019-04-30T12:57:39.234Z,87.37
2019-04-30T13:00:09.585Z,68.33
2019-04-30T13:02:37.503Z,74.50
2019-04-30T13:05:08.684Z,74.13
2019-04-30T13:07:39.020Z,69.27
2019-04-30T13:10:07.973Z,73.90
2019-04-30T13:12:37.014Z,67.93
2019-04-30T13:15:06.511Z,59.27
2019-04-30T13:17:34.505Z,59.53
2019-04-30T13:20:02.377Z,50.00
2019-04-30T13:22:31.027Z,46.37
2019-04-30T13:24:59.706Z,49.40
2019-04-30T13:27:29.307Z,45.17
2019-04-30T13:30:06.105Z,54.03
2019-04-30T13:32:40.276Z,53.67
2019-04-30T13:35:09.365Z,51.93
2019-04-30T13:37:45.641Z,53.37
2019-04-30T13:40:32.591Z,54.33
2019-04-30T13:43:01.384Z,57.50
2019-04-30T13:45:28.955Z,58.70
2019-04-30T13:47:56.542Z,59.93
2019-04-30T13:50:25.115Z,56.23
2019-04-30T13:52:53.046Z,53.80
2019-04-30T13:55:21.011Z,53.83
2019-04-30T13:57:49.022Z,56.30
2019-04-30T14:00:22.345Z,55.10
2019-04-30T14:02:59.202Z,52.10
2019-04-30T14:05:27.530Z,47.30
2019-04-30T14:08:09.565Z,49.57
2019-04-30T14:10:41.269Z,50.47
2019-04-30T14:13:10.819Z,50.33
2019-04-30T14:15:39.775Z,50.03
2019-04-30T14:18:09.338Z,53.40
2019-04-30T14:20:38.057Z,53.63
2019-04-30T14:23:08.564Z,60.10
2019-04-30T14:25:36.877Z,66.90
2019-04-30T14:28:05.296Z,59.90
2019-04-30T14:30:33.348Z,59.57
2019-04-30T14:33:01.867Z,60.90
2019-04-30T14:35:30.143Z,58.30
2019-04-30T14:37:59.634Z,55.60
2019-04-30T14:40:30.600Z,60.10
2019-04-30T14:43:09.806Z,50.60
2019-04-30T14:45:55.175Z,53.57
2019-04-30T14:48:31.179Z,55.27
2019-04-30T14:51:00.122Z,54.17
2019-04-30T14:53:49.975Z,53.87
2019-04-30T14:56:40.688Z,58.43
2019-04-30T14:59:34.365Z,49.57
2019-04-30T15:02:20.944Z,52.23
2019-04-30T15:04:48.942Z,54.20
2019-04-30T15:07:17.208Z,54.77
2019-04-30T15:09:45.484Z,55.67
2019-04-30T15:12:14.202Z,58.87
2019-04-30T15:14:43.055Z,52.40
2019-04-30T15:17:11.007Z,60.10
2019-04-30T15:19:39.352Z,56.93
2019-04-30T15:22:09.133Z,57.93
2019-04-30T15:24:39.237Z,55.63
2019-04-30T15:27:09.207Z,56.73
2019-04-30T15:29:39.213Z,51.53
2019-04-30T15:32:08.675Z,55.43
2019-04-30T15:34:39.278Z,53.97
2019-04-30T15:37:18.714Z,51.23
2019-04-30T15:39:40.532Z,51.83
2019-04-30T15:42:09.366Z,56.60
2019-04-30T15:44:42.642Z,53.13
2019-04-30T15:47:08.972Z,56.10
2019-04-30T15:49:37.237Z,54.73
2019-04-30T15:52:05.181Z,59.47
2019-04-30T15:54:34.008Z,58.07
2019-04-30T15:57:02.403Z,53.57
2019-04-30T15:59:43.233Z,53.07
2019-04-30T16:02:23.526Z,56.77
2019-04-30T16:05:25.622Z,54.47
2019-04-30T16:08:12.466Z,57.47
2019-04-30T16:11:00.577Z,58.97
2019-04-30T16:13:31.826Z,54.20
2019-04-30T16:16:00.460Z,53.93
2019-04-30T16:18:35.577Z,55.07
2019-04-30T16:21:03.865Z,66.37
2019-04-30T16:23:32.158Z,48.13
2019-04-30T16:26:00.545Z,53.43
2019-04-30T16:28:29.527Z,54.40
2019-04-30T16:30:57.931Z,71.63
2019-04-30T16:33:26.192Z,61.30
2019-04-30T16:35:54.956Z,53.80
2019-04-30T16:38:22.542Z,61.10
2019-04-30T16:40:50.746Z,51.70
2019-04-30T16:43:20.352Z,49.10
2019-04-30T16:45:49.437Z,45.33
2019-04-30T16:48:19.351Z,46.87
2019-04-30T16:50:48.905Z,51.70
2019-04-30T16:53:18.503Z,47.87
2019-04-30T16:55:50.369Z,49.42
2019-04-30T16:58:19.447Z,43.67
2019-04-30T17:00:46.362Z,49.93
2019-04-30T17:03:20.745Z,42.33
2019-04-30T17:05:53.113Z,41.83
2019-04-30T17:08:35.377Z,43.77
2019-04-30T17:11:38.698Z,56.00
2019-04-30T17:14:10.268Z,56.30
2019-04-30T17:16:39.192Z,87.47
2019-04-30T17:19:09.088Z,66.23
2019-04-30T17:21:37.451Z,65.07
2019-04-30T17:24:05.724Z,76.07
2019-04-30T17:26:34.015Z,77.53
2019-04-30T17:29:02.425Z,60.97
2019-04-30T17:31:31.306Z,54.13
2019-04-30T17:33:59.677Z,48.67
2019-04-30T17:36:27.161Z,42.83
2019-04-30T17:38:55.060Z,44.80
2019-04-30T17:41:23.521Z,45.83
2019-04-30T17:43:51.645Z,47.30
2019-04-30T17:46:20.301Z,50.53
2019-04-30T17:48:49.553Z,41.17
2019-04-30T17:51:18.178Z,42.87
2019-04-30T17:54:05.691Z,67.90
2019-04-30T17:56:34.296Z,75.53
2019-04-30T17:59:02.253Z,65.20
2019-04-30T18:01:30.528Z,49.37
2019-04-30T18:03:58.894Z,50.23
2019-04-30T18:06:27.727Z,48.03
2019-04-30T18:08:56.308Z,43.17
2019-04-30T18:11:24.854Z,42.27
2019-04-30T18:13:53.247Z,46.23
2019-04-30T18:16:21.152Z,41.63
2019-04-30T18:18:59.223Z,44.77
2019-04-30T18:21:32.039Z,48.33
2019-04-30T18:24:43.531Z,57.33
2019-04-30T18:27:45.572Z,48.73
2019-04-30T18:30:13.417Z,45.33
2019-04-30T18:32:42.173Z,43.93
2019-04-30T18:35:10.411Z,42.50
2019-04-30T18:37:38.987Z,44.40
2019-04-30T18:40:09.516Z,41.50
2019-04-30T18:42:39.536Z,42.30
2019-04-30T18:45:09.186Z,45.20
2019-04-30T18:47:37.847Z,39.33
2019-04-30T18:50:06.022Z,45.53
2019-04-30T18:52:35.736Z,42.77
2019-04-30T18:55:04.671Z,43.83
2019-04-30T18:57:32.918Z,47.20
2019-04-30T19:00:01.921Z,46.40
2019-04-30T19:02:30.288Z,44.57
2019-04-30T19:04:59.515Z,44.80
2019-04-30T19:07:36.181Z,48.57
2019-04-30T19:10:33.610Z,48.73
2019-04-30T19:13:12.344Z,48.90
2019-04-30T19:16:18.592Z,49.50
2019-04-30T19:18:48.540Z,42.30
2019-04-30T19:21:16.789Z,49.73
2019-04-30T19:23:45.418Z,49.47
2019-04-30T19:26:14.008Z,48.23
2019-04-30T19:28:42.739Z,49.33
2019-04-30T19:31:11.740Z,56.20
2019-04-30T19:33:39.858Z,64.40
2019-04-30T19:36:09.639Z,60.43
2019-04-30T19:38:38.132Z,66.17
2019-04-30T19:41:10.653Z,81.83
2019-04-30T19:43:39.096Z,70.53
2019-04-30T19:46:09.051Z,74.70
2019-04-30T19:48:38.010Z,65.10
2019-04-30T19:51:08.705Z,52.10
2019-04-30T19:53:39.366Z,55.07
2019-04-30T19:56:08.007Z,51.80
2019-04-30T19:58:50.083Z,60.17
2019-04-30T20:01:09.370Z,55.03
2019-04-30T20:03:36.940Z,55.60
2019-04-30T20:06:04.508Z,56.57
2019-04-30T20:08:32.788Z,58.63
2019-04-30T20:11:00.758Z,60.37
2019-04-30T20:13:36.575Z,54.03
2019-04-30T20:15:59.456Z,61.83
2019-04-30T20:18:29.199Z,59.80
2019-04-30T20:21:01.198Z,59.03
2019-04-30T20:23:29.637Z,62.20
2019-04-30T20:25:57.937Z,64.20
2019-04-30T20:28:38.614Z,64.23
2019-04-30T20:30:56.803Z,53.77
2019-04-30T20:33:25.051Z,52.40
2019-04-30T20:35:53.818Z,56.17
2019-04-30T20:38:53.209Z,45.53
2019-04-30T20:41:21.193Z,49.03
2019-04-30T20:43:49.571Z,56.17
2019-04-30T20:46:29.794Z,71.93
2019-04-30T20:48:49.087Z,76.57
2019-04-30T20:51:19.591Z,68.40
2019-04-30T20:53:49.147Z,61.40
2019-04-30T20:56:19.139Z,64.03
2019-04-30T20:58:57.195Z,55.03
2019-04-30T21:01:19.199Z,57.60
2019-04-30T21:03:47.377Z,64.43
2019-04-30T21:06:16.083Z,72.10
2019-04-30T21:08:44.652Z,60.57
2019-04-30T21:11:12.576Z,52.43
2019-04-30T21:13:40.602Z,56.83
2019-04-30T21:16:08.553Z,56.37
2019-04-30T21:18:39.170Z,56.60
2019-04-30T21:21:07.808Z,56.50
2019-04-30T21:23:35.981Z,55.83
2019-04-30T21:26:04.288Z,52.07
2019-04-30T21:28:32.743Z,52.93
2019-04-30T21:31:20.291Z,49.30
2019-04-30T21:33:50.058Z,50.20
2019-04-30T21:36:21.248Z,53.07
2019-04-30T21:38:49.678Z,59.77
2019-04-30T21:41:19.445Z,54.50
2019-04-30T21:43:47.717Z,50.93
2019-04-30T21:46:16.417Z,55.93
2019-04-30T21:48:45.132Z,56.50
2019-04-30T21:51:13.121Z,57.57
2019-04-30T21:53:41.000Z,50.07
2019-04-30T21:56:09.636Z,52.87
2019-04-30T21:58:39.245Z,50.73
2019-04-30T22:01:23.320Z,48.07
2019-04-30T22:03:51.336Z,52.10
2019-04-30T22:06:20.189Z,44.43
2019-04-30T22:08:48.681Z,46.23
2019-04-30T22:11:19.623Z,45.30
2019-04-30T22:13:49.403Z,43.43
2019-04-30T22:16:20.099Z,42.50
2019-04-30T22:18:48.541Z,47.03
2019-04-30T22:21:16.736Z,52.23
2019-04-30T22:23:45.446Z,54.03
2019-04-30T22:26:13.638Z,44.63
2019-04-30T22:28:41.977Z,47.57
2019-04-30T22:31:10.146Z,52.40
2019-04-30T22:33:39.195Z,52.97
2019-04-30T22:36:13.943Z,49.87
2019-04-30T22:39:00.272Z,53.73
2019-04-30T22:41:29.707Z,54.07
2019-04-30T22:43:58.487Z,47.33
2019-04-30T22:46:27.072Z,47.83
2019-04-30T22:48:55.556Z,46.27
2019-04-30T22:51:24.146Z,45.97
2019-04-30T22:53:52.005Z,44.30
2019-04-30T22:56:19.621Z,45.20
2019-04-30T22:58:48.273Z,46.13
2019-04-30T23:01:38.972Z,55.70
2019-04-30T23:04:10.448Z,42.87
2019-04-30T23:06:38.047Z,45.73
2019-04-30T23:09:08.531Z,48.03
2019-04-30T23:11:37.106Z,40.70
2019-04-30T23:14:05.292Z,41.20
2019-04-30T23:16:33.669Z,32.83
2019-04-30T23:19:02.362Z,32.13
2019-04-30T23:21:30.755Z,37.37
2019-04-30T23:23:59.032Z,41.57
2019-04-30T23:26:27.719Z,38.17
2019-04-30T23:28:56.008Z,35.23
2019-04-30T23:31:24.372Z,37.10
2019-04-30T23:33:52.700Z,39.80
2019-04-30T23:36:21.408Z,35.17
2019-04-30T23:38:48.998Z,44.53
2019-04-30T23:41:17.312Z,38.63
2019-04-30T23:43:45.548Z,41.17
2019-04-30T23:46:14.307Z,44.07
2019-04-30T23:48:42.267Z,41.43
2019-04-30T23:51:10.539Z,40.97
2019-04-30T23:53:39.283Z,40.97
2019-04-30T23:56:07.518Z,36.10
2019-04-30T23:58:36.091Z,38.87
